createdAt,value
2018-07-11T02:19:55.381Z,3
2018-07-11T02:30:56.063Z,7
2018-07-11T02:34:56.328Z,10
2018-07-11T02:36:56.457Z,13
2018-07-11T02:38:56.566Z,17
2018-07-11T02:39:56.622Z,20
2018-07-11T02:41:26.661Z,23
2018-07-11T02:42:26.774Z,27
2018-07-11T02:43:26.776Z,30
2018-07-11T02:44:26.840Z,33
2018-07-11T02:44:56.877Z,37
2018-07-11T02:45:56.951Z,40
2018-07-11T02:46:26.978Z,43
2018-07-11T02:46:57.001Z,47
2018-07-11T02:47:27.023Z,50
2018-07-11T02:47:57.061Z,53
2018-07-11T02:48:27.112Z,57
2018-07-11T02:48:57.119Z,60
2018-07-11T02:49:27.151Z,63
2018-07-11T02:49:57.216Z,70
2018-07-11T02:50:27.215Z,73
2018-07-11T02:50:57.286Z,77
2018-07-11T02:51:27.299Z,80
2018-07-11T02:51:57.300Z,83
2018-07-11T02:52:27.368Z,87
2018-07-11T02:52:57.398Z,90
2018-07-11T02:53:27.422Z,93
2018-07-11T02:53:57.470Z,97
2018-07-11T02:54:27.461Z,100
2018-07-11T02:54:57.528Z,103
2018-07-11T02:55:27.566Z,107
2018-07-11T02:55:57.594Z,113
2018-07-11T02:56:27.576Z,117
2018-07-11T02:56:57.611Z,120
2018-07-11T02:57:27.658Z,127
2018-07-11T02:57:57.703Z,130
2018-07-11T02:58:27.767Z,137
2018-07-11T02:58:57.734Z,140
2018-07-11T02:59:27.763Z,147
2018-07-11T02:59:57.793Z,150
2018-07-11T03:00:27.823Z,157
2018-07-11T03:00:57.886Z,163
2018-07-11T03:01:27.907Z,170
2018-07-11T03:01:57.917Z,177
2018-07-11T03:02:27.951Z,183
2018-07-11T03:02:58.001Z,190
2018-07-11T03:03:28.009Z,197
2018-07-11T03:03:58.052Z,203
2018-07-11T03:04:28.113Z,210
2018-07-11T03:04:58.141Z,213
2018-07-11T03:05:28.165Z,223
2018-07-11T03:05:58.195Z,233
2018-07-11T03:06:28.195Z,247
2018-07-11T03:06:58.253Z,257
2018-07-11T03:07:28.301Z,270
2018-07-11T03:07:58.294Z,280
2018-07-11T03:08:28.348Z,293
2018-07-11T03:08:58.380Z,307
2018-07-11T03:09:28.400Z,320
2018-07-11T03:09:58.445Z,333
2018-07-11T03:10:28.486Z,347
2018-07-11T03:10:58.528Z,357
2018-07-11T03:11:28.557Z,370
2018-07-11T03:11:58.587Z,380
2018-07-11T03:12:28.611Z,390
2018-07-11T03:12:58.631Z,400
2018-07-11T03:13:28.694Z,410
2018-07-11T03:13:58.707Z,420
2018-07-11T03:14:28.742Z,427
2018-07-11T03:14:58.788Z,433
2018-07-11T03:15:28.775Z,443
2018-07-11T03:15:58.816Z,450
2018-07-11T03:16:28.849Z,460
2018-07-11T03:16:58.891Z,470
2018-07-11T03:17:28.915Z,483
2018-07-11T03:17:58.949Z,500
2018-07-11T03:18:28.986Z,517
2018-07-11T03:18:59.012Z,537
2018-07-11T03:19:29.033Z,560
2018-07-11T03:19:59.078Z,583
2018-07-11T03:20:29.096Z,610
2018-07-11T03:20:59.137Z,637
2018-07-11T03:21:29.182Z,657
2018-07-11T03:21:59.202Z,683
2018-07-11T03:22:29.220Z,707
2018-07-11T03:22:59.276Z,727
2018-07-11T03:23:29.309Z,750
2018-07-11T03:23:59.328Z,767
2018-07-11T03:24:29.336Z,787
2018-07-11T03:24:59.400Z,803
2018-07-11T03:25:29.402Z,820
2018-07-11T03:25:59.442Z,843
2018-07-11T03:26:29.462Z,867
2018-07-11T03:26:59.484Z,903
2018-07-11T03:27:29.528Z,947
2018-07-11T03:27:59.530Z,993
2018-07-11T03:28:29.598Z,1040
2018-07-11T03:28:59.587Z,1083
2018-07-11T03:29:29.688Z,1127
2018-07-11T03:29:59.651Z,1173
2018-07-11T03:30:29.675Z,1220
2018-07-11T03:30:59.724Z,1263
2018-07-11T03:31:29.728Z,1307
2018-07-11T03:31:59.761Z,1360
2018-07-11T03:32:29.845Z,1413
2018-07-11T03:32:59.815Z,1473
2018-07-11T03:33:29.920Z,1533
2018-07-11T03:33:59.898Z,1607
2018-07-11T03:34:30.362Z,1687
2018-07-11T03:34:59.956Z,1763
2018-07-11T03:35:29.976Z,1850
2018-07-11T03:36:00.018Z,1923
2018-07-11T03:36:30.053Z,1987
2018-07-11T03:37:00.123Z,2030
2018-07-11T03:37:30.118Z,2053
2018-07-11T03:38:00.139Z,2060
2018-07-11T03:38:30.160Z,2050
2018-07-11T03:39:00.251Z,2030
2018-07-11T03:39:30.226Z,2003
2018-07-11T03:40:01.254Z,1983
2018-07-11T03:40:30.295Z,1960
2018-07-11T03:41:01.523Z,1937
2018-07-11T03:41:30.403Z,1923
2018-07-11T03:42:00.883Z,1920
2018-07-11T03:42:30.435Z,1933
2018-07-11T03:43:00.985Z,1963
2018-07-11T03:43:30.501Z,2013
2018-07-11T03:44:01.488Z,2080
2018-07-11T03:44:30.542Z,2157
2018-07-11T03:45:01.618Z,2253
2018-07-11T03:45:30.609Z,2347
2018-07-11T03:46:00.874Z,2447
2018-07-11T03:46:30.739Z,2543
2018-07-11T03:47:01.481Z,2633
2018-07-11T03:47:30.793Z,2733
2018-07-11T03:48:01.494Z,2827
2018-07-11T03:48:30.820Z,2930
2018-07-11T03:49:01.483Z,3033
2018-07-11T03:49:30.877Z,3143
2018-07-11T03:50:01.591Z,3253
2018-07-11T03:50:30.904Z,3370
2018-07-11T03:51:01.736Z,3483
2018-07-11T03:51:30.961Z,3593
2018-07-11T03:52:01.629Z,3693
2018-07-11T03:52:31.045Z,3783
2018-07-11T03:53:01.525Z,3857
2018-07-11T03:53:31.096Z,3930
2018-07-11T03:54:01.525Z,3987
2018-07-11T03:54:31.143Z,4043
2018-07-11T03:55:01.171Z,4107
2018-07-11T03:55:31.206Z,4183
2018-07-11T03:56:01.239Z,4267
2018-07-11T03:56:31.271Z,4333
2018-07-11T03:57:01.300Z,4427
2018-07-11T03:57:31.345Z,4537
2018-07-11T03:58:01.463Z,4647
2018-07-11T03:58:31.464Z,4770
2018-07-11T03:59:01.589Z,4907
2018-07-11T03:59:31.486Z,5047
2018-07-11T04:00:01.486Z,5160
2018-07-11T04:00:31.539Z,5270
2018-07-11T04:01:01.544Z,5367
2018-07-11T04:01:31.628Z,5463
2018-07-11T04:02:01.637Z,5547
2018-07-11T04:02:31.714Z,5633
2018-07-11T04:03:01.670Z,5693
2018-07-11T04:03:31.752Z,5760
2018-07-11T04:04:01.725Z,5837
2018-07-11T04:04:31.806Z,5880
2018-07-11T04:05:01.787Z,5917
2018-07-11T04:05:31.863Z,5957
2018-07-11T04:06:01.913Z,5987
2018-07-11T04:06:31.920Z,6043
2018-07-11T04:07:01.916Z,6107
2018-07-11T04:07:32.000Z,6163
2018-07-11T04:08:02.010Z,6213
2018-07-11T04:08:32.087Z,6287
2018-07-11T04:09:02.034Z,6353
2018-07-11T04:09:32.120Z,6437
2018-07-11T04:10:02.137Z,6517
2018-07-11T04:10:32.214Z,6590
2018-07-11T04:11:02.193Z,6650
2018-07-11T04:11:32.247Z,6693
2018-07-11T04:12:02.251Z,6747
2018-07-11T04:12:32.287Z,6793
2018-07-11T04:13:02.349Z,6820
2018-07-11T04:13:32.447Z,6827
2018-07-11T04:14:02.377Z,6847
2018-07-11T04:14:32.383Z,6853
2018-07-11T04:15:02.452Z,6867
2018-07-11T04:15:32.487Z,6893
2018-07-11T04:16:02.510Z,6900
2018-07-11T04:16:32.499Z,6913
2018-07-11T04:17:02.582Z,6940
2018-07-11T04:17:32.563Z,6943
2018-07-11T04:18:02.645Z,6923
2018-07-11T04:18:32.647Z,6910
2018-07-11T04:19:02.704Z,6873
2018-07-11T04:19:32.705Z,6827
2018-07-11T04:20:02.859Z,6747
2018-07-11T04:20:32.762Z,6650
2018-07-11T04:21:02.781Z,6517
2018-07-11T04:21:32.814Z,6370
2018-07-11T04:22:02.840Z,6240
2018-07-11T04:22:32.885Z,6123
2018-07-11T04:23:02.897Z,6020
2018-07-11T04:23:32.930Z,5950
2018-07-11T04:24:02.956Z,5897
2018-07-11T04:24:32.990Z,5877
2018-07-11T04:25:03.275Z,5873
2018-07-11T04:25:33.067Z,5883
2018-07-11T04:26:03.185Z,5920
2018-07-11T04:26:33.124Z,5970
2018-07-11T04:27:03.145Z,6027
2018-07-11T04:27:33.226Z,6100
2018-07-11T04:28:03.219Z,6177
2018-07-11T04:28:33.302Z,6263
2018-07-11T04:29:03.266Z,6373
2018-07-11T04:29:33.399Z,6497
2018-07-11T04:30:03.457Z,6627
2018-07-11T04:30:33.414Z,6743
2018-07-11T04:31:03.399Z,6827
2018-07-11T04:31:33.455Z,6883
2018-07-11T04:32:03.533Z,6923
2018-07-11T04:32:33.501Z,6963
2018-07-11T04:33:03.525Z,7023
2018-07-11T04:33:33.618Z,7127
2018-07-11T04:34:03.579Z,7273
2018-07-11T04:34:33.738Z,7467
2018-07-11T04:35:03.754Z,7677
2018-07-11T04:35:33.720Z,7883
2018-07-11T04:36:03.724Z,8067
2018-07-11T04:36:33.726Z,8237
2018-07-11T04:37:03.769Z,8390
2018-07-11T04:37:33.790Z,8517
2018-07-11T04:38:03.819Z,8623
2018-07-11T04:38:33.860Z,8703
2018-07-11T04:39:03.882Z,8773
2018-07-11T04:39:33.914Z,8830
2018-07-11T04:40:04.062Z,8900
2018-07-11T04:40:33.979Z,8970
2018-07-11T04:41:04.007Z,9020
2018-07-11T04:41:34.051Z,9027
2018-07-11T04:42:04.075Z,8990
2018-07-11T04:42:34.110Z,8950
2018-07-11T04:43:04.127Z,8900
2018-07-11T04:43:34.166Z,8887
2018-07-11T04:44:04.216Z,8960
2018-07-11T04:44:34.225Z,9067
2018-07-11T04:45:04.527Z,9033
2018-07-11T04:45:34.606Z,8893
2018-07-11T04:46:04.621Z,8690
2018-07-11T04:46:34.651Z,8430
2018-07-11T04:47:04.682Z,8237
2018-07-11T04:47:34.725Z,8107
2018-07-11T04:48:04.767Z,8000
2018-07-11T04:48:34.742Z,7853
2018-07-11T04:49:04.795Z,7670
2018-07-11T04:49:34.801Z,7443
2018-07-11T04:50:05.008Z,7200
2018-07-11T04:50:34.988Z,6910
2018-07-11T04:51:04.985Z,6557
2018-07-11T04:51:34.962Z,6183
2018-07-11T04:52:05.004Z,5830
2018-07-11T04:52:35.057Z,5767
2018-07-11T04:53:05.040Z,5993
2018-07-11T04:53:35.050Z,6253
2018-07-11T04:54:05.116Z,6473
2018-07-11T04:54:35.108Z,6647
2018-07-11T04:55:05.206Z,6797
2018-07-11T04:55:35.329Z,7000
2018-07-11T04:56:05.232Z,7273
2018-07-11T04:56:35.272Z,7457
2018-07-11T04:57:05.307Z,7453
2018-07-11T04:57:35.319Z,7470
2018-07-11T04:58:05.570Z,7440
2018-07-11T04:58:35.546Z,7353
2018-07-11T04:59:05.631Z,7270
2018-07-11T04:59:35.649Z,7423
2018-07-11T05:00:05.849Z,7720
2018-07-11T05:00:36.037Z,7733
2018-07-11T05:01:05.931Z,7480
2018-07-11T05:01:35.956Z,7287
2018-07-11T05:02:05.974Z,7330
2018-07-11T05:02:36.020Z,7597
2018-07-11T05:03:06.039Z,8143
2018-07-11T05:03:36.134Z,8687
2018-07-11T05:04:06.098Z,9167
2018-07-11T05:04:36.152Z,9333
2018-07-11T05:05:06.194Z,9400
2018-07-11T05:05:37.260Z,9250
2018-07-11T05:06:06.753Z,9207
2018-07-11T05:06:36.785Z,9437
2018-07-11T05:07:06.819Z,9930
2018-07-11T05:07:36.847Z,10307
2018-07-11T05:08:06.882Z,10453
2018-07-11T05:08:36.913Z,10450
2018-07-11T05:09:06.941Z,10287
2018-07-11T05:09:36.962Z,10097
2018-07-11T05:10:06.996Z,9970
2018-07-11T05:10:37.108Z,9817
2018-07-11T05:11:07.377Z,9743
2018-07-11T05:11:37.125Z,9657
2018-07-11T05:12:07.165Z,9553
2018-07-11T05:12:37.236Z,9423
2018-07-11T05:13:07.252Z,9337
2018-07-11T05:13:37.231Z,9253
2018-07-11T05:14:07.281Z,9173
2018-07-11T05:14:37.329Z,9217
2018-07-11T05:15:07.319Z,9393
2018-07-11T05:15:37.371Z,9483
2018-07-11T05:16:08.159Z,9480
2018-07-11T05:16:37.852Z,9323
2018-07-11T05:17:07.901Z,9053
2018-07-11T05:17:37.971Z,8593
2018-07-11T05:18:07.959Z,8197
2018-07-11T05:18:38.019Z,7727
2018-07-11T05:19:08.037Z,7413
2018-07-11T05:19:38.096Z,7213
2018-07-11T05:20:08.032Z,7130
2018-07-11T05:21:08.388Z,7200
2018-07-11T05:21:38.164Z,7353
2018-07-11T05:22:08.218Z,7617
2018-07-11T05:22:38.382Z,7983
2018-07-11T05:23:08.275Z,8443
2018-07-11T05:23:38.301Z,9013
2018-07-11T05:24:08.289Z,9480
2018-07-11T05:24:38.397Z,9913
2018-07-11T05:25:08.430Z,10290
2018-07-11T05:25:38.428Z,10697
2018-07-11T05:26:08.591Z,11203
2018-07-11T05:26:38.479Z,11663
2018-07-11T05:27:08.509Z,11990
2018-07-11T05:27:38.631Z,12217
2018-07-11T05:28:08.596Z,12403
2018-07-11T05:28:39.155Z,12387
2018-07-11T05:29:09.198Z,12187
2018-07-11T05:29:39.225Z,11950
2018-07-11T05:30:09.248Z,11797
2018-07-11T05:30:39.227Z,11753
2018-07-11T05:31:09.398Z,11770
2018-07-11T05:31:39.348Z,11777
2018-07-11T05:32:09.373Z,11823
2018-07-11T05:32:39.374Z,11890
2018-07-11T05:33:09.386Z,11997
2018-07-11T05:33:39.457Z,12153
2018-07-11T05:34:09.456Z,12220
2018-07-11T05:34:39.546Z,12187
2018-07-11T05:35:09.568Z,12093
2018-07-11T05:35:39.564Z,11970
2018-07-11T05:36:09.739Z,11767
2018-07-11T05:36:39.621Z,11573
2018-07-11T05:37:09.684Z,11407
2018-07-11T05:37:39.659Z,11230
2018-07-11T05:38:09.699Z,11087
2018-07-11T05:38:39.714Z,11050
2018-07-11T05:39:09.807Z,11063
2018-07-11T05:39:39.785Z,11067
2018-07-11T05:40:09.813Z,11100
2018-07-11T05:40:39.849Z,11233
2018-07-11T05:41:09.998Z,11377
2018-07-11T05:41:39.964Z,11537
2018-07-11T05:42:09.937Z,11717
2018-07-11T05:42:39.967Z,11920
2018-07-11T05:43:10.032Z,12143
2018-07-11T05:43:40.059Z,12267
2018-07-11T05:44:10.059Z,12310
2018-07-11T05:44:40.098Z,12313
2018-07-11T05:45:10.115Z,12480
2018-07-11T05:45:40.165Z,12820
2018-07-11T05:46:10.344Z,13237
2018-07-11T05:46:40.247Z,13683
2018-07-11T05:47:10.314Z,14243
2018-07-11T05:47:40.296Z,14927
2018-07-11T05:48:10.416Z,15473
2018-07-11T05:48:40.357Z,16023
2018-07-11T05:49:10.400Z,16457
2018-07-11T05:49:40.443Z,16890
2018-07-11T05:50:10.459Z,17290
2018-07-11T05:50:40.479Z,17617
2018-07-11T05:51:10.668Z,17800
2018-07-11T05:51:40.567Z,17857
2018-07-11T05:52:10.623Z,17963
2018-07-11T05:52:40.610Z,18033
2018-07-11T05:53:10.615Z,17897
2018-07-11T05:53:40.671Z,17587
2018-07-11T05:54:10.715Z,17057
2018-07-11T05:54:40.708Z,16603
2018-07-11T05:55:10.815Z,16267
2018-07-11T05:55:40.857Z,16027
2018-07-11T05:56:11.353Z,15823
2018-07-11T05:56:40.883Z,15810
2018-07-11T05:57:10.893Z,15920
2018-07-11T05:57:40.950Z,16007
2018-07-11T05:58:10.999Z,15967
2018-07-11T05:58:40.998Z,15747
2018-07-11T05:59:11.021Z,15310
2018-07-11T05:59:41.032Z,14690
2018-07-11T06:00:11.104Z,13783
2018-07-11T06:00:41.140Z,12670
2018-07-11T06:01:11.210Z,11667
2018-07-11T06:01:41.197Z,10650
2018-07-11T06:02:11.196Z,9787
2018-07-11T06:02:41.289Z,9120
2018-07-11T06:03:11.286Z,8713
2018-07-11T06:03:41.304Z,8637
2018-07-11T06:04:11.375Z,8800
2018-07-11T06:04:41.389Z,9330
2018-07-11T06:05:11.350Z,9813
2018-07-11T06:05:41.460Z,9817
2018-07-11T06:06:11.464Z,9857
2018-07-11T06:06:41.603Z,10163
2018-07-11T06:07:11.531Z,10707
2018-07-11T06:07:41.559Z,11320
2018-07-11T06:08:11.602Z,11900
2018-07-11T06:08:41.835Z,12387
2018-07-11T06:09:11.895Z,12800
2018-07-11T06:09:41.888Z,13193
2018-07-11T06:10:11.918Z,13587
2018-07-11T06:10:41.943Z,13990
2018-07-11T06:11:11.972Z,14423
2018-07-11T06:11:42.136Z,14803
2018-07-11T06:12:12.037Z,15017
2018-07-11T06:12:42.156Z,15033
2018-07-11T06:13:12.219Z,14963
2018-07-11T06:13:42.309Z,14930
2018-07-11T06:14:12.197Z,14920
2018-07-11T06:14:42.201Z,14953
2018-07-11T06:15:12.223Z,15020
2018-07-11T06:15:42.550Z,15123
2018-07-11T06:16:12.291Z,15277
2018-07-11T06:16:42.463Z,15433
2018-07-11T06:17:12.422Z,15533
2018-07-11T06:17:42.459Z,15747
2018-07-11T06:18:12.420Z,16237
2018-07-11T06:18:42.437Z,16790
2018-07-11T06:19:12.507Z,17017
2018-07-11T06:19:42.537Z,17260
2018-07-11T06:20:12.588Z,17407
2018-07-11T06:20:42.575Z,17520
2018-07-11T06:21:12.657Z,17537
2018-07-11T06:21:42.738Z,17693
2018-07-11T06:22:12.716Z,17883
2018-07-11T06:22:42.682Z,18023
2018-07-11T06:23:12.725Z,17997
2018-07-11T06:23:42.745Z,17963
2018-07-11T06:24:12.778Z,18027
2018-07-11T06:24:42.878Z,18220
2018-07-11T06:25:12.836Z,18327
2018-07-11T06:25:42.873Z,18353
2018-07-11T06:26:12.898Z,18283
2018-07-11T06:26:43.455Z,18433
2018-07-11T06:27:12.955Z,18683
2018-07-11T06:27:43.029Z,18997
2018-07-11T06:28:13.023Z,19380
2018-07-11T06:28:43.954Z,19873
2018-07-11T06:29:13.095Z,20350
2018-07-11T06:29:43.110Z,20883
2018-07-11T06:30:13.163Z,21553
2018-07-11T06:30:43.187Z,22383
2018-07-11T06:31:13.244Z,23353
2018-07-11T06:31:43.372Z,24407
2018-07-11T06:32:13.343Z,25397
2018-07-11T06:32:43.296Z,26290
2018-07-11T06:33:13.388Z,27327
2018-07-11T06:33:43.385Z,28247
2018-07-11T06:34:13.470Z,28917
2018-07-11T06:34:43.711Z,29487
2018-07-11T06:35:13.734Z,29963
2018-07-11T06:35:43.743Z,30270
2018-07-11T06:36:13.804Z,30290
2018-07-11T06:36:43.895Z,30203
2018-07-11T06:37:13.833Z,30073
2018-07-11T06:37:43.885Z,29777
2018-07-11T06:38:13.917Z,29467
2018-07-11T06:38:43.962Z,29113
2018-07-11T06:39:14.022Z,28673
2018-07-11T06:39:44.023Z,28460
2018-07-11T06:40:14.168Z,28487
2018-07-11T06:40:44.094Z,28350
2018-07-11T06:41:14.236Z,28257
2018-07-11T06:41:44.169Z,28620
2018-07-11T06:42:14.168Z,29070
2018-07-11T06:42:44.208Z,29590
2018-07-11T06:43:14.233Z,30093
2018-07-11T06:43:44.248Z,30723
2018-07-11T06:44:14.294Z,31327
2018-07-11T06:44:44.334Z,31903
2018-07-11T06:45:14.419Z,32373
2018-07-11T06:45:44.435Z,32663
2018-07-11T06:46:14.450Z,32917
2018-07-11T06:46:44.489Z,33147
2018-07-11T06:47:14.449Z,33380
2018-07-11T06:47:44.454Z,33730
2018-07-11T06:48:14.501Z,33923
2018-07-11T06:48:44.522Z,34113
2018-07-11T06:49:14.584Z,34303
2018-07-11T06:49:44.618Z,34633
2018-07-11T06:50:14.871Z,35007
2018-07-11T06:50:44.665Z,35350
2018-07-11T06:51:14.687Z,35603
2018-07-11T06:51:45.188Z,35667
2018-07-11T06:52:15.234Z,35883
2018-07-11T06:52:45.229Z,36113
2018-07-11T06:53:15.260Z,36267
2018-07-11T06:53:45.264Z,36907
2018-07-11T06:54:15.369Z,37340
2018-07-11T06:54:45.391Z,37383
2018-07-11T06:55:16.300Z,37150
2018-07-11T06:55:45.783Z,36867
2018-07-11T06:56:15.851Z,36550
2018-07-11T06:56:45.840Z,36327
2018-07-11T06:57:15.871Z,36220
2018-07-11T06:57:45.906Z,35680
2018-07-11T06:58:15.932Z,35360
2018-07-11T06:58:45.972Z,35177
2018-07-11T06:59:15.993Z,34577
2018-07-11T06:59:46.068Z,32660
2018-07-11T07:00:16.626Z,31653
2018-07-11T07:00:46.110Z,31160
2018-07-11T07:01:16.154Z,31507
2018-07-11T07:01:46.154Z,32927
2018-07-11T07:02:16.248Z,34120
2018-07-11T07:02:46.221Z,33927
2018-07-11T07:03:16.279Z,34193
2018-07-11T07:03:46.289Z,34913
2018-07-11T07:04:16.369Z,35907
2018-07-11T07:04:46.361Z,36313
2018-07-11T07:05:16.506Z,34947
2018-07-11T07:05:46.444Z,32923
2018-07-11T07:06:16.451Z,31963
2018-07-11T07:06:46.771Z,30880
2018-07-11T07:07:16.502Z,29467
2018-07-11T07:07:46.549Z,26893
2018-07-11T07:08:16.569Z,24600
2018-07-11T07:08:46.612Z,23280
2018-07-11T07:09:16.656Z,23417
2018-07-11T07:09:46.709Z,24820
2018-07-11T07:10:16.830Z,26903
2018-07-11T07:10:46.768Z,29633
2018-07-11T07:11:16.818Z,33483
2018-07-11T07:11:46.788Z,37773
2018-07-11T07:12:16.810Z,40097
2018-07-11T07:12:46.895Z,40470
2018-07-11T07:13:17.154Z,40070
2018-07-11T07:13:47.252Z,41320
2018-07-11T07:14:17.217Z,43350
2018-07-11T07:14:47.264Z,46347
2018-07-11T07:15:17.357Z,48547
2018-07-11T07:15:47.322Z,50803
2018-07-11T07:16:17.412Z,54470
2018-07-11T07:16:47.422Z,60027
2018-07-11T07:17:17.450Z,64900
2018-07-11T07:17:47.443Z,65950
2018-07-11T07:18:17.511Z,65657
2018-07-11T07:18:47.539Z,65367
2018-07-11T07:19:17.542Z,64357
2018-07-11T07:19:47.602Z,62440
2018-07-11T07:20:18.139Z,61837
2018-07-11T07:20:47.651Z,63573
2018-07-11T07:21:17.646Z,66983
2018-07-11T07:21:47.714Z,69037
2018-07-11T07:22:17.818Z,70950
2018-07-11T07:22:47.747Z,72810
2018-07-11T07:23:17.812Z,72077
2018-07-11T07:23:47.835Z,70380
2018-07-11T07:24:17.847Z,69717
2018-07-11T07:24:47.909Z,70920
2018-07-11T07:25:18.051Z,66563
2018-07-11T07:25:47.928Z,63380
2018-07-11T07:26:18.007Z,61467
2018-07-11T07:26:48.006Z,60150
2018-07-11T07:27:18.024Z,60060
2018-07-11T07:27:48.077Z,60367
2018-07-11T07:28:18.081Z,59860
2018-07-11T07:28:48.121Z,58593
2018-07-11T07:29:18.190Z,57170
2018-07-11T07:29:48.217Z,55743
2018-07-11T07:30:18.202Z,55790
2018-07-11T07:30:48.384Z,57813
2018-07-11T07:31:18.319Z,59747
2018-07-11T07:31:48.295Z,59923
2018-07-11T07:32:18.357Z,57823
2018-07-11T07:32:48.418Z,55583
2018-07-11T07:33:18.447Z,54390
2018-07-11T07:33:48.451Z,53023
2018-07-11T07:34:18.452Z,51620
2018-07-11T07:34:48.622Z,52280
2018-07-11T07:35:18.536Z,56057
2018-07-11T07:35:49.075Z,58903
2018-07-11T07:36:18.633Z,58930
2018-07-11T07:36:48.781Z,58453
2018-07-11T07:37:18.656Z,59433
2018-07-11T07:37:48.674Z,60757
2018-07-11T07:38:18.725Z,63677
2018-07-11T07:38:48.731Z,67390
2018-07-11T07:39:18.759Z,72593
2018-07-11T07:39:48.791Z,76973
2018-07-11T07:40:18.841Z,73733
2018-07-11T07:40:48.974Z,63470
2018-07-11T07:41:18.889Z,60423
2018-07-11T07:41:48.924Z,54987
2018-07-11T07:42:18.940Z,57757
2018-07-11T07:42:48.968Z,57303
2018-07-11T07:43:19.014Z,50320
2018-07-11T07:43:49.027Z,42530
2018-07-11T07:44:19.073Z,38933
2018-07-11T07:44:49.090Z,37783
2018-07-11T07:45:19.126Z,35190
2018-07-11T07:45:49.422Z,33353
2018-07-11T07:46:19.252Z,32330
2018-07-11T07:46:49.236Z,31690
2018-07-11T07:47:19.288Z,32780
2018-07-11T07:47:49.296Z,35727
2018-07-11T07:48:19.330Z,39240
2018-07-11T07:48:49.349Z,42037
2018-07-11T07:49:19.404Z,44410
2018-07-11T07:49:49.406Z,47183
2018-07-11T07:50:19.476Z,50167
2018-07-11T07:50:49.615Z,54873
2018-07-11T07:51:19.553Z,63987
2018-07-11T07:51:49.535Z,110003
2018-07-11T07:52:19.592Z,99517
2018-07-11T07:52:49.638Z,78453
2018-07-11T07:53:19.665Z,102857
2018-07-11T07:53:49.730Z,68333
2018-07-11T07:54:19.753Z,75173
2018-07-11T07:54:49.740Z,68733
2018-07-11T07:55:19.778Z,52823
2018-07-11T07:55:49.983Z,37127
2018-07-11T07:56:19.851Z,34127
2018-07-11T07:56:49.918Z,34620
2018-07-11T07:57:19.905Z,37947
2018-07-11T07:57:49.961Z,41613
2018-07-11T07:58:19.979Z,44903
2018-07-11T07:58:50.029Z,46807
2018-07-11T07:59:20.041Z,48167
2018-07-11T07:59:50.017Z,49643
2018-07-11T08:00:20.106Z,51423
2018-07-11T08:00:50.293Z,53970
2018-07-11T08:01:20.165Z,56143
2018-07-11T08:01:50.158Z,74397
2018-07-11T08:02:20.228Z,104113
2018-07-11T08:02:50.274Z,84023
2018-07-11T08:03:20.317Z,67690
2018-07-11T08:03:50.345Z,72713
2018-07-11T08:04:20.351Z,77507
2018-07-11T08:04:50.391Z,63660
2018-07-11T08:05:20.363Z,61420
2018-07-11T08:05:50.530Z,67790
2018-07-11T08:06:20.415Z,60553
2018-07-11T08:06:50.522Z,59740
2018-07-11T08:07:20.481Z,66677
2018-07-11T08:07:50.575Z,109000
2018-07-11T08:08:20.559Z,122323
2018-07-11T08:08:50.640Z,90590
2018-07-11T08:09:20.623Z,65837
2018-07-11T08:09:50.633Z,49370
2018-07-11T08:10:20.751Z,64583
2018-07-11T08:10:50.835Z,63960
2018-07-11T08:11:20.735Z,93193
2018-07-11T08:11:50.798Z,71227
2018-07-11T08:12:20.794Z,51243
2018-07-11T08:12:50.820Z,49927
2018-07-11T08:13:20.895Z,44767
2018-07-11T08:13:50.883Z,54067
2018-07-11T08:14:20.917Z,46607
2018-07-11T08:14:50.949Z,49767
2018-07-11T08:15:20.977Z,76103
2018-07-11T08:15:51.124Z,130437
2018-07-11T08:16:21.037Z,77800
2018-07-11T08:16:51.086Z,47707
2018-07-11T08:17:21.141Z,49993
2018-07-11T08:17:51.132Z,52477
2018-07-11T08:18:21.209Z,54413
2018-07-11T08:18:51.206Z,75870
2018-07-11T08:19:21.224Z,76127
2018-07-11T08:19:51.265Z,54820
2018-07-11T08:20:21.340Z,61773
2018-07-11T08:20:51.452Z,58097
2018-07-11T08:21:21.419Z,64900
2018-07-11T08:21:51.379Z,60463
2018-07-11T08:22:21.458Z,61313
2018-07-11T08:22:51.497Z,65990
2018-07-11T08:23:21.542Z,63997
2018-07-11T08:23:51.558Z,61587
2018-07-11T08:24:21.587Z,60820
2018-07-11T08:24:51.568Z,122727
2018-07-11T08:25:21.606Z,107093
2018-07-11T08:25:51.740Z,113490
2018-07-11T08:26:21.653Z,85920
2018-07-11T08:26:51.722Z,61737
2018-07-11T08:27:21.737Z,130127
2018-07-11T08:27:51.742Z,139430
2018-07-11T08:28:21.799Z,159900
2018-07-11T08:28:51.818Z,167310
2018-07-11T08:29:21.835Z,136010
2018-07-11T08:31:52.024Z,158727
2018-07-11T08:32:22.018Z,160673
2018-07-11T08:32:52.068Z,84480
2018-07-11T08:33:22.085Z,68053
2018-07-11T08:33:52.144Z,79010
2018-07-11T08:34:22.269Z,99050
2018-07-11T08:34:52.213Z,131773
2018-07-11T08:35:22.204Z,128153
2018-07-11T08:35:52.416Z,126910
2018-07-11T08:36:22.302Z,116610
2018-07-11T08:36:52.355Z,94187
2018-07-11T08:37:22.368Z,57670
2018-07-11T08:37:52.419Z,58820
2018-07-11T08:38:22.457Z,64977
2018-07-11T08:38:52.454Z,101123
2018-07-11T08:39:22.461Z,139247
2018-07-11T08:39:52.500Z,158460
2018-07-11T08:40:22.593Z,173633
2018-07-11T08:40:52.691Z,167260
2018-07-11T08:41:22.626Z,99350
2018-07-11T08:41:52.650Z,52517
2018-07-11T08:42:22.696Z,46533
2018-07-11T08:42:52.824Z,44183
2018-07-11T08:43:22.745Z,43520
2018-07-11T08:43:52.762Z,42903
2018-07-11T08:44:22.767Z,42063
2018-07-11T08:44:52.832Z,41380
2018-07-11T08:45:22.852Z,40720
2018-07-11T08:45:53.007Z,40657
2018-07-11T08:46:22.918Z,41237
2018-07-11T08:46:52.914Z,41220
2018-07-11T08:47:22.990Z,40570
2018-07-11T08:47:53.028Z,39940
2018-07-11T08:48:23.163Z,39457
2018-07-11T08:48:53.064Z,38987
2018-07-11T08:49:23.069Z,38953
2018-07-11T08:49:53.161Z,39200
2018-07-11T08:50:23.171Z,39863
2018-07-11T08:50:53.439Z,40953
2018-07-11T08:51:23.195Z,42233
2018-07-11T08:51:53.252Z,43347
2018-07-11T08:52:23.299Z,44543
2018-07-11T08:52:53.345Z,45433
2018-07-11T08:53:23.341Z,46127
2018-07-11T08:53:53.461Z,46423
2018-07-11T08:54:23.403Z,46323
2018-07-11T08:54:53.427Z,45560
2018-07-11T08:55:23.485Z,44390
2018-07-11T08:55:53.674Z,42920
2018-07-11T08:56:23.530Z,41007
2018-07-11T08:56:53.566Z,39410
2018-07-11T08:57:23.606Z,38450
2018-07-11T08:57:53.615Z,37890
2018-07-11T08:58:23.675Z,38117
2018-07-11T08:58:53.674Z,38740
2018-07-11T08:59:23.694Z,39390
2018-07-11T08:59:53.727Z,39947
2018-07-11T09:00:23.768Z,40270
2018-07-11T09:00:53.911Z,40300
2018-07-11T09:01:23.806Z,40043
2018-07-11T09:01:53.919Z,40223
2018-07-11T09:02:23.945Z,40333
2018-07-11T09:02:53.909Z,39920
2018-07-11T09:03:23.941Z,39220
2018-07-11T09:03:53.985Z,38450
2018-07-11T09:04:23.998Z,37847
2018-07-11T09:04:54.032Z,37927
2018-07-11T09:05:24.180Z,38640
2018-07-11T09:05:54.088Z,39777
2018-07-11T09:06:24.175Z,41333
2018-07-11T09:06:54.148Z,42883
2018-07-11T09:07:24.233Z,44360
2018-07-11T09:07:54.233Z,46060
2018-07-11T09:08:24.313Z,47477
2018-07-11T09:08:54.347Z,48693
2018-07-11T09:09:24.364Z,49807
2018-07-11T09:09:54.367Z,50390
2018-07-11T09:10:24.580Z,51007
2018-07-11T09:10:54.514Z,51523
2018-07-11T09:11:24.495Z,51553
2018-07-11T09:11:54.481Z,51870
2018-07-11T09:12:24.549Z,52033
2018-07-11T09:12:54.530Z,52267
2018-07-11T09:13:24.607Z,52487
2018-07-11T09:13:54.610Z,52590
2018-07-11T09:14:24.664Z,52873
2018-07-11T09:14:54.645Z,52563
2018-07-11T09:15:24.846Z,51980
2018-07-11T09:15:54.726Z,52780
2018-07-11T09:16:24.740Z,53373